Time;durP1;ratioP1;P1;durP2;ratioP2;P2;SDS_P1;SDS_P2;PMS_P1;PMS_P2;Temp;Humidity;BMP_temperature;BMP_pressure;BME280_temperature;BME280_humidity;BME280_pressure;Samples;Min_cycle;Max_cycle;Signal;HPM_P1;HPM_P2
2022/12/17 13:06:13;;;;;;;31.33;22.93;;;4.80;1.00;;;;;;5113451;27;20256;-80
2022/12/17 13:08:40;;;;;;;27.97;21.03;;;4.70;1.00;;;;;;5110178;27;20228;-81
2022/12/17 13:11:27;;;;;;;28.93;21.53;;;4.30;1.00;;;;;;5117602;27;20172;-82
2022/12/17 13:13:58;;;;;;;28.30;21.83;;;4.30;1.00;;;;;;5096727;28;20672;-79
2022/12/17 13:16:45;;;;;;;27.87;20.93;;;4.10;1.00;;;;;;5118310;27;20242;-78
2022/12/17 13:19:35;;;;;;;27.63;21.03;;;4.00;1.00;;;;;;5091082;28;20182;-80
2022/12/17 13:22:16;;;;;;;30.23;22.83;;;3.90;1.00;;;;;;5103558;28;20210;-79
2022/12/17 13:24:47;;;;;;;30.97;21.53;;;4.00;1.00;;;;;;5097707;28;20174;-79
2022/12/17 13:27:28;;;;;;;29.53;22.03;;;4.10;1.00;;;;;;5108646;28;20582;-81
2022/12/17 13:29:54;;;;;;;30.13;21.53;;;4.30;1.00;;;;;;5092712;28;20179;-80
2022/12/17 13:32:37;;;;;;;30.13;21.03;;;4.30;1.00;;;;;;5098922;28;20172;-82
2022/12/17 13:35:21;;;;;;;30.43;21.87;;;4.50;1.00;;;;;;5097644;28;20579;-79
2022/12/17 13:38:04;;;;;;;30.40;22.00;;;4.20;1.00;;;;;;5099726;28;20199;-79
2022/12/17 13:40:32;;;;;;;28.23;21.53;;;4.00;1.00;;;;;;5104577;28;20662;-81
2022/12/17 13:42:58;;;;;;;30.67;21.83;;;4.10;1.00;;;;;;5115419;28;20586;-80
2022/12/17 13:45:25;;;;;;;30.83;22.10;;;4.20;1.00;;;;;;5098716;28;20171;-81
2022/12/17 13:47:58;;;;;;;29.67;21.67;;;4.10;1.00;;;;;;5117278;28;20166;-81
2022/12/17 13:50:29;;;;;;;28.70;21.47;;;4.30;1.00;;;;;;5115064;28;20177;-81
2022/12/17 13:52:55;;;;;;;27.07;20.73;;;4.40;1.00;;;;;;5115245;28;20174;-80
2022/12/17 13:55:27;;;;;;;31.67;21.90;;;4.30;1.00;;;;;;5117123;28;20250;-82
2022/12/17 13:57:54;;;;;;;30.33;21.43;;;4.40;1.00;;;;;;5118061;28;20171;-80
2022/12/17 14:00:27;;;;;;;29.97;21.90;;;4.20;1.00;;;;;;5117602;28;20190;-81
2022/12/17 14:02:53;;;;;;;31.83;22.50;;;4.20;1.00;;;;;;5117266;28;20187;-81
2022/12/17 14:05:39;;;;;;;30.30;21.40;;;4.30;1.00;;;;;;5117210;28;20178;-81
2022/12/17 14:08:05;;;;;;;30.40;21.60;;;4.30;1.00;;;;;;5098947;28;20193;-83
2022/12/17 14:10:31;;;;;;;31.47;23.17;;;4.30;1.00;;;;;;5097955;28;20217;-80
2022/12/17 14:13:09;;;;;;;34.43;23.17;;;4.30;1.00;;;;;;5097288;28;20701;-80
2022/12/17 14:15:35;;;;;;;31.83;21.57;;;4.20;1.00;;;;;;5116695;28;20165;-80
2022/12/17 14:18:02;;;;;;;29.03;21.53;;;4.10;1.00;;;;;;5116357;28;20170;-81
2022/12/17 14:20:30;;;;;;;30.87;21.80;;;4.00;1.00;;;;;;5116037;28;20199;-81
2022/12/17 14:23:03;;;;;;;30.10;22.67;;;3.90;1.00;;;;;;5099349;28;20175;-83
2022/12/17 14:25:34;;;;;;;29.57;22.20;;;4.10;1.00;;;;;;5116134;28;20235;-83
2022/12/17 14:28:05;;;;;;;30.37;22.10;;;4.10;1.00;;;;;;5115488;28;20162;-82
2022/12/17 14:30:41;;;;;;;30.23;22.13;;;4.30;1.00;;;;;;5117317;28;20186;-81
2022/12/17 14:33:31;;;;;;;30.03;21.03;;;4.00;1.00;;;;;;5116081;28;20246;-82
2022/12/17 14:36:04;;;;;;;29.03;21.90;;;4.00;1.00;;;;;;5115567;28;20266;-82
2022/12/17 14:38:32;;;;;;;30.30;22.30;;;4.00;1.00;;;;;;5098062;28;20202;-83
2022/12/17 14:43:57;;;;;;;34.50;21.63;;;4.20;1.00;;;;;;5115951;28;20186;-81
2022/12/17 14:46:24;;;;;;;30.67;21.67;;;4.20;1.00;;;;;;5115908;28;20196;-82
2022/12/17 14:49:00;;;;;;;29.57;20.77;;;4.20;1.00;;;;;;5115398;28;20634;-83
2022/12/17 14:51:33;;;;;;;32.87;22.63;;;4.10;1.00;;;;;;5115800;28;20175;-82
2022/12/17 14:54:25;;;;;;;31.37;21.97;;;4.20;1.00;;;;;;5115324;28;20581;-83
2022/12/17 14:56:53;;;;;;;30.67;21.27;;;4.00;1.00;;;;;;5111743;28;20187;-79
2022/12/17 14:59:32;;;;;;;29.57;21.47;;;4.10;1.00;;;;;;5115854;28;20178;-82
2022/12/17 15:02:14;;;;;;;28.60;20.47;;;3.70;1.00;;;;;;5098219;28;20244;-82
2022/12/17 15:04:40;;;;;;;30.50;20.60;;;3.50;1.00;;;;;;5116259;28;20166;-81
2022/12/17 15:07:06;;;;;;;32.07;22.50;;;3.70;1.00;;;;;;5115209;28;20162;-80
2022/12/17 15:09:36;;;;;;;32.07;22.43;;;3.90;1.00;;;;;;5115251;28;20178;-80
2022/12/17 15:12:02;;;;;;;33.43;22.03;;;4.00;1.00;;;;;;5114450;28;20194;-79
2022/12/17 15:14:27;;;;;;;37.60;22.67;;;4.00;1.00;;;;;;5114727;28;20167;-79
2022/12/17 15:16:55;;;;;;;30.67;22.50;;;4.10;1.00;;;;;;5114460;28;20164;-80
2022/12/17 15:19:21;;;;;;;33.67;22.43;;;4.10;1.00;;;;;;5096657;28;20591;-80
2022/12/17 15:21:49;;;;;;;28.80;20.97;;;4.40;1.00;;;;;;5114787;28;20226;-81
2022/12/17 15:24:19;;;;;;;28.77;20.63;;;4.40;1.00;;;;;;5115416;28;20198;-81
2022/12/17 15:26:45;;;;;;;27.00;20.13;;;4.40;1.00;;;;;;5097578;28;20202;-80
2022/12/17 15:29:11;;;;;;;33.03;21.27;;;4.30;1.00;;;;;;5114985;28;20177;-79
2022/12/17 15:31:37;;;;;;;30.33;20.23;;;4.10;1.00;;;;;;5095886;28;20170;-80
2022/12/17 15:34:03;;;;;;;28.63;19.67;;;4.10;1.00;;;;;;5115728;28;20627;-79
2022/12/17 15:36:33;;;;;;;30.07;19.70;;;4.20;1.00;;;;;;5114875;28;20170;-81
2022/12/17 15:38:58;;;;;;;31.47;21.93;;;4.10;1.00;;;;;;5115006;28;20643;-81
2022/12/17 15:44:08;;;;;;;34.87;21.23;;;4.10;1.00;;;;;;5117598;28;20207;-80
2022/12/17 15:46:34;;;;;;;33.57;23.23;;;4.00;1.00;;;;;;5099434;28;20171;-79
2022/12/17 15:49:01;;;;;;;34.33;23.87;;;4.00;1.00;;;;;;5117445;28;20196;-80
2022/12/17 15:51:28;;;;;;;37.33;25.33;;;4.00;1.00;;;;;;5116531;28;20535;-82
2022/12/17 15:53:54;;;;;;;39.07;26.13;;;4.00;1.00;;;;;;5116611;28;20161;-81
2022/12/17 15:56:22;;;;;;;38.30;25.93;;;4.00;1.00;;;;;;5098772;28;20198;-81
2022/12/17 15:58:48;;;;;;;39.80;25.80;;;3.80;1.00;;;;;;5099371;28;20183;-80
2022/12/17 16:01:14;;;;;;;35.83;25.77;;;3.70;1.00;;;;;;5100628;28;20206;-81
2022/12/17 16:03:40;;;;;;;38.67;25.37;;;3.50;1.00;;;;;;5118302;28;20262;-79
2022/12/17 16:06:06;;;;;;;36.83;25.43;;;3.50;1.00;;;;;;5118531;28;20239;-81
2022/12/17 16:08:32;;;;;;;41.07;26.57;;;3.30;1.00;;;;;;5120686;28;20683;-80
2022/12/17 16:10:57;;;;;;;41.60;27.40;;;3.40;1.00;;;;;;5104506;28;20238;-79
2022/12/17 16:13:23;;;;;;;45.77;31.13;;;3.30;1.00;;;;;;5112299;28;20199;-80
2022/12/17 16:15:56;;;;;;;45.90;30.23;;;3.30;1.00;;;;;;5117795;28;20641;-79
2022/12/17 16:18:23;;;;;;;47.50;32.13;;;3.30;1.00;;;;;;5120567;28;20166;-80
2022/12/17 16:20:49;;;;;;;54.43;34.93;;;3.40;1.00;;;;;;5136954;28;20195;-81
2022/12/17 16:23:15;;;;;;;67.07;42.87;;;3.30;1.00;;;;;;5110396;28;20259;-80
2022/12/17 16:25:58;;;;;;;61.07;39.67;;;3.20;1.00;;;;;;5120302;28;20171;-80
2022/12/17 16:28:25;;;;;;;61.57;42.67;;;3.30;1.00;;;;;;5101393;28;20197;-82
2022/12/17 16:31:05;;;;;;;59.37;39.57;;;3.20;1.00;;;;;;5115835;28;20167;-82
2022/12/17 16:33:35;;;;;;;51.80;36.43;;;3.20;1.00;;;;;;5113729;28;20554;-81
2022/12/17 16:36:02;;;;;;;50.50;35.23;;;3.10;1.00;;;;;;5113338;28;20170;-82
2022/12/17 16:38:28;;;;;;;51.57;34.03;;;3.10;1.00;;;;;;5113664;28;20724;-81
2022/12/17 16:40:56;;;;;;;50.10;33.13;;;3.10;1.00;;;;;;5113288;28;20198;-81
2022/12/17 16:43:22;;;;;;;48.60;33.97;;;3.10;1.00;;;;;;5117454;28;20253;-80
2022/12/17 16:45:50;;;;;;;48.10;32.73;;;3.10;1.00;;;;;;5120033;28;20225;-80
2022/12/17 16:48:18;;;;;;;45.07;31.43;;;2.80;1.00;;;;;;5101804;28;20219;-82
2022/12/17 16:50:44;;;;;;;55.20;36.27;;;2.90;1.00;;;;;;5122983;28;20220;-81
2022/12/17 16:53:10;;;;;;;49.53;32.93;;;2.80;1.00;;;;;;5113028;28;20221;-81
2022/12/17 16:55:47;;;;;;;49.23;32.27;;;2.80;1.00;;;;;;5114443;28;20167;-82
2022/12/17 16:58:16;;;;;;;47.07;33.13;;;2.80;1.00;;;;;;5095032;28;20189;-82
2022/12/17 17:00:44;;;;;;;48.60;33.13;;;2.90;1.00;;;;;;5116428;28;20202;-82
2022/12/17 17:03:09;;;;;;;51.43;32.53;;;2.80;1.00;;;;;;5098917;28;20175;-81
2022/12/17 17:05:37;;;;;;;50.33;31.63;;;2.70;3.00;;;;;;5099178;28;20263;-81
2022/12/17 17:08:04;;;;;;;47.30;31.97;;;2.70;6.20;;;;;;5117927;28;20175;-82
2022/12/17 17:10:33;;;;;;;49.03;30.47;;;2.70;8.20;;;;;;5098829;28;20212;-82
2022/12/17 17:12:59;;;;;;;46.63;30.90;;;2.80;6.90;;;;;;5116254;28;20235;-82
2022/12/17 17:15:24;;;;;;;42.10;29.27;;;2.80;6.80;;;;;;5117016;28;20171;-82
2022/12/17 17:17:50;;;;;;;44.53;28.60;;;2.80;6.80;;;;;;5116828;28;20174;-82
2022/12/17 17:20:16;;;;;;;45.83;29.17;;;2.80;5.60;;;;;;5098304;28;20194;-81
2022/12/17 17:22:42;;;;;;;44.23;29.13;;;2.60;7.50;;;;;;5116013;28;20179;-81
2022/12/17 17:25:08;;;;;;;44.87;29.00;;;2.60;9.50;;;;;;5117322;28;20655;-81
2022/12/17 17:27:34;;;;;;;47.00;30.10;;;2.60;10.10;;;;;;5117213;28;20512;-79
2022/12/17 17:30:00;;;;;;;44.37;28.30;;;2.60;10.20;;;;;;5116680;28;20163;-78
2022/12/17 17:32:26;;;;;;;42.50;26.70;;;2.40;12.80;;;;;;5116815;28;20163;-81
2022/12/17 17:34:51;;;;;;;45.23;29.33;;;2.40;17.80;;;;;;5100034;28;20174;-80
2022/12/17 17:37:17;;;;;;;39.07;26.33;;;2.30;21.50;;;;;;5098683;28;20194;-80
2022/12/17 17:39:45;;;;;;;40.00;26.97;;;2.50;20.50;;;;;;5116963;28;20193;-78
2022/12/17 17:42:10;;;;;;;39.00;25.63;;;2.50;16.90;;;;;;5098860;28;20579;-80
2022/12/17 17:44:37;;;;;;;36.57;26.20;;;2.70;16.70;;;;;;5098168;28;20170;-81
2022/12/17 17:47:03;;;;;;;41.23;27.00;;;2.60;17.20;;;;;;5117848;28;20171;-79
2022/12/17 17:49:29;;;;;;;43.60;29.60;;;2.60;17.10;;;;;;5098372;28;20242;-80
2022/12/17 17:51:55;;;;;;;38.37;27.00;;;2.60;17.10;;;;;;5116990;28;20175;-80
2022/12/17 17:54:20;;;;;;;37.47;24.20;;;2.70;16.50;;;;;;5116862;28;20175;-80
2022/12/17 17:56:46;;;;;;;38.53;25.83;;;2.60;14.70;;;;;;5116212;28;20178;-80
2022/12/17 17:59:16;;;;;;;38.20;24.43;;;2.50;16.80;;;;;;5116555;28;20174;-79
2022/12/17 18:01:45;;;;;;;38.07;26.60;;;2.70;15.10;;;;;;5116984;28;20440;-81
2022/12/17 18:04:14;;;;;;;34.13;24.30;;;2.60;12.90;;;;;;5100584;28;20254;-80
2022/12/17 18:06:42;;;;;;;40.87;26.00;;;2.50;12.20;;;;;;5123316;28;20163;-79
2022/12/17 18:09:09;;;;;;;38.47;25.27;;;2.60;11.70;;;;;;5120832;28;20155;-80
2022/12/17 18:11:36;;;;;;;38.13;26.90;;;2.50;11.00;;;;;;5139118;28;20194;-79
2022/12/17 18:14:06;;;;;;;35.90;25.87;;;2.40;11.10;;;;;;5121029;28;20224;-80
2022/12/17 18:16:38;;;;;;;36.83;24.17;;;2.40;13.30;;;;;;5100897;28;20166;-80
2022/12/17 18:19:06;;;;;;;35.50;24.23;;;2.40;12.10;;;;;;5117406;28;20151;-80
2022/12/17 18:21:32;;;;;;;37.17;25.07;;;2.40;13.20;;;;;;5117573;28;20511;-80
2022/12/17 18:24:06;;;;;;;38.23;25.00;;;2.40;14.10;;;;;;5116895;28;20167;-78
2022/12/17 18:26:36;;;;;;;38.43;28.17;;;2.30;14.40;;;;;;5098053;28;20638;-80
2022/12/17 18:29:27;;;;;;;37.13;25.97;;;2.30;15.40;;;;;;5116806;28;20308;-80
2022/12/17 18:31:53;;;;;;;37.53;25.87;;;2.40;16.10;;;;;;5099708;28;20209;-80
2022/12/17 18:34:22;;;;;;;38.10;25.07;;;2.50;14.50;;;;;;5118399;28;20166;-80
2022/12/17 18:36:49;;;;;;;36.87;25.07;;;2.60;12.80;;;;;;5098992;28;20174;-80
2022/12/17 18:39:20;;;;;;;37.83;25.00;;;2.60;11.10;;;;;;5097351;28;20173;-81
2022/12/17 18:44:37;;;;;;;34.93;24.60;;;2.50;13.00;;;;;;5108652;28;20174;-80
2022/12/17 18:47:03;;;;;;;37.53;25.90;;;2.50;13.10;;;;;;5117467;28;20171;-79
2022/12/17 18:49:29;;;;;;;46.43;31.67;;;2.60;14.30;;;;;;5100350;28;20170;-80
2022/12/17 18:51:55;;;;;;;39.73;28.17;;;2.40;16.50;;;;;;5125421;28;20591;-80
2022/12/17 18:54:22;;;;;;;38.70;26.60;;;2.50;15.60;;;;;;5119871;28;20715;-78
2022/12/17 18:56:48;;;;;;;34.97;24.13;;;2.50;13.30;;;;;;5121848;28;20178;-79
2022/12/17 18:59:17;;;;;;;35.63;25.67;;;2.20;13.70;;;;;;5117051;28;20163;-79
2022/12/17 19:01:43;;;;;;;37.03;24.63;;;2.30;16.40;;;;;;5101350;28;20214;-83
2022/12/17 19:04:12;;;;;;;35.30;23.07;;;2.40;16.60;;;;;;5119628;28;20170;-82
2022/12/17 19:06:38;;;;;;;35.87;26.00;;;2.40;15.80;;;;;;5116848;28;20178;-81
2022/12/17 19:09:05;;;;;;;35.63;24.80;;;2.40;15.80;;;;;;5098018;28;20175;-82
2022/12/17 19:11:32;;;;;;;33.77;24.53;;;2.40;15.10;;;;;;5119422;28;20167;-81
2022/12/17 19:13:57;;;;;;;41.87;26.87;;;2.50;13.50;;;;;;5117274;28;20217;-80
2022/12/17 19:16:25;;;;;;;38.20;27.40;;;2.60;11.80;;;;;;5116641;28;20163;-81
2022/12/17 19:19:00;;;;;;;39.20;25.83;;;2.50;9.00;;;;;;5116301;28;20174;-82
2022/12/17 19:21:27;;;;;;;36.67;23.60;;;2.70;8.10;;;;;;5117488;28;20201;-82
2022/12/17 19:23:58;;;;;;;38.97;25.73;;;2.50;5.70;;;;;;5115837;28;20639;-83
2022/12/17 19:26:25;;;;;;;40.30;27.23;;;2.60;7.30;;;;;;5097538;28;20175;-81
2022/12/17 19:28:53;;;;;;;42.03;27.40;;;2.40;6.40;;;;;;5096859;28;20177;-79
2022/12/17 19:31:21;;;;;;;36.13;25.17;;;2.50;8.70;;;;;;5115453;28;20207;-80
2022/12/17 19:33:46;;;;;;;40.73;26.50;;;2.50;7.50;;;;;;5096335;28;20541;-80
2022/12/17 19:36:15;;;;;;;40.77;27.20;;;2.60;6.40;;;;;;5115076;28;20193;-81
2022/12/17 19:38:41;;;;;;;41.67;28.30;;;2.40;5.70;;;;;;5114409;28;20183;-80
2022/12/17 19:41:15;;;;;;;44.53;28.83;;;2.30;7.70;;;;;;5096445;28;20214;-80
2022/12/17 19:43:45;;;;;;;47.03;34.07;;;2.40;10.70;;;;;;5114765;28;20194;-79
2022/12/17 19:46:16;;;;;;;45.43;30.77;;;2.40;10.80;;;;;;5096933;28;20210;-81
2022/12/17 19:48:43;;;;;;;39.90;26.97;;;2.40;10.50;;;;;;5115221;28;20193;-80
2022/12/17 19:51:10;;;;;;;43.17;28.07;;;2.40;8.90;;;;;;5115405;28;20171;-81
2022/12/17 19:53:37;;;;;;;38.53;27.10;;;2.40;9.00;;;;;;5096982;28;20174;-80
2022/12/17 19:56:15;;;;;;;39.83;26.20;;;2.30;8.60;;;;;;5115097;28;20171;-80
2022/12/17 19:58:42;;;;;;;35.97;25.03;;;2.40;9.90;;;;;;5115235;28;20658;-81
2022/12/17 20:01:11;;;;;;;40.77;26.43;;;2.40;7.20;;;;;;5115010;28;20201;-81
2022/12/17 20:03:37;;;;;;;42.73;27.60;;;2.20;5.80;;;;;;5115323;28;20216;-81
2022/12/17 20:06:03;;;;;;;34.33;23.37;;;2.20;6.10;;;;;;5097275;28;20198;-79
2022/12/17 20:08:30;;;;;;;36.77;24.03;;;2.00;5.80;;;;;;5096634;28;20623;-80
2022/12/17 20:10:56;;;;;;;40.90;25.40;;;2.10;6.90;;;;;;5115472;28;20170;-79
2022/12/17 20:13:23;;;;;;;38.60;24.07;;;2.00;6.60;;;;;;5117494;28;20252;-79
2022/12/17 20:16:02;;;;;;;37.07;23.70;;;2.10;5.20;;;;;;5116150;28;20191;-81
2022/12/17 20:18:28;;;;;;;40.40;25.37;;;2.10;5.90;;;;;;5115493;28;20174;-80
2022/12/17 20:21:04;;;;;;;45.27;29.87;;;2.00;6.40;;;;;;5097781;28;20210;-80
2022/12/17 20:23:31;;;;;;;49.13;30.80;;;2.00;10.00;;;;;;5114246;28;20177;-81
2022/12/17 20:26:08;;;;;;;52.80;32.57;;;2.00;12.60;;;;;;5116076;28;20167;-81
2022/12/17 20:28:34;;;;;;;56.10;33.60;;;2.00;14.10;;;;;;5115634;28;20171;-79
2022/12/17 20:31:02;;;;;;;55.20;33.60;;;2.10;13.40;;;;;;5115064;28;20250;-80
2022/12/17 20:33:28;;;;;;;52.70;33.63;;;2.20;12.20;;;;;;5131358;28;20159;-79
2022/12/17 20:35:54;;;;;;;51.60;33.17;;;2.00;12.60;;;;;;5139674;28;20155;-79
2022/12/17 20:38:20;;;;;;;51.77;32.37;;;2.00;13.90;;;;;;5107088;28;20258;-79
2022/12/17 20:40:45;;;;;;;50.97;32.33;;;2.00;14.80;;;;;;5122215;28;20230;-80
2022/12/17 20:43:14;;;;;;;51.03;32.87;;;1.80;18.20;;;;;;5102591;28;20181;-78
2022/12/17 20:45:53;;;;;;;53.47;33.90;;;1.90;20.00;;;;;;5102438;28;20178;-80
2022/12/17 20:48:21;;;;;;;54.87;35.70;;;1.70;20.10;;;;;;5103866;28;20190;-80
2022/12/17 20:50:47;;;;;;;52.40;33.83;;;1.70;21.70;;;;;;5104651;28;20167;-81
2022/12/17 20:53:12;;;;;;;51.30;33.20;;;1.60;22.90;;;;;;5122471;28;20186;-79
2022/12/17 20:55:38;;;;;;;53.03;32.20;;;1.30;23.20;;;;;;5107189;28;20167;-79
2022/12/17 20:58:05;;;;;;;56.60;34.40;;;1.30;28.40;;;;;;5109624;28;20194;-80
2022/12/17 21:00:31;;;;;;;54.00;33.43;;;1.30;30.00;;;;;;5123461;28;20202;-80
2022/12/17 21:02:56;;;;;;;51.40;32.83;;;1.40;31.60;;;;;;5122953;28;20173;-79
2022/12/17 21:05:22;;;;;;;64.30;39.10;;;1.40;30.50;;;;;;5116324;28;20175;-79
2022/12/17 21:07:51;;;;;;;66.27;42.00;;;1.40;29.70;;;;;;5122484;28;20166;-80
2022/12/17 21:10:21;;;;;;;56.07;34.37;;;1.40;30.90;;;;;;5122167;28;20276;-80
2022/12/17 21:15:37;;;;;;;55.53;35.67;;;1.30;30.90;;;;;;5119871;28;20178;-80
2022/12/17 21:18:03;;;;;;;54.97;34.80;;;1.30;30.90;;;;;;5102334;28;20174;-80
2022/12/17 21:20:29;;;;;;;58.30;36.40;;;1.50;32.60;;;;;;5128461;28;20190;-82
2022/12/17 21:22:54;;;;;;;54.03;33.90;;;1.30;33.30;;;;;;5114577;28;20197;-80
2022/12/17 21:25:20;;;;;;;49.33;30.60;;;1.30;35.90;;;;;;5129679;28;20171;-80
2022/12/17 21:27:46;;;;;;;52.17;33.13;;;1.30;37.00;;;;;;5105153;28;20259;-81
2022/12/17 21:30:12;;;;;;;50.83;32.33;;;1.40;36.30;;;;;;5116293;28;20688;-80
2022/12/17 21:32:38;;;;;;;49.70;32.57;;;1.40;35.20;;;;;;5127908;28;20156;-80
2022/12/17 21:35:04;;;;;;;47.40;30.23;;;1.30;34.30;;;;;;5126636;28;20185;-80
2022/12/17 21:37:30;;;;;;;50.57;32.00;;;1.40;35.80;;;;;;5119267;28;20190;-80
2022/12/17 21:39:55;;;;;;;40.60;28.03;;;1.40;34.90;;;;;;5117960;28;20180;-80
2022/12/17 21:45:06;;;;;;;39.70;28.00;;;1.30;32.10;;;;;;5117026;28;20213;-81
2022/12/17 21:47:31;;;;;;;44.53;28.17;;;1.40;33.30;;;;;;5099497;28;20227;-81
2022/12/17 21:49:57;;;;;;;44.07;28.73;;;1.30;32.10;;;;;;5099766;28;20230;-81
2022/12/17 21:52:23;;;;;;;45.43;29.23;;;1.30;33.60;;;;;;5118238;28;20167;-80
2022/12/17 21:54:48;;;;;;;43.70;28.60;;;1.30;32.10;;;;;;5099527;28;20244;-80
2022/12/17 21:57:14;;;;;;;43.97;29.20;;;1.40;31.50;;;;;;5118739;28;20175;-81
2022/12/17 21:59:40;;;;;;;45.23;29.53;;;1.40;33.20;;;;;;5098841;28;20182;-80
2022/12/17 22:02:05;;;;;;;43.40;27.53;;;1.40;33.80;;;;;;5116943;28;20260;-81
2022/12/17 22:04:31;;;;;;;39.97;26.40;;;1.40;32.80;;;;;;5117379;28;20646;-81
2022/12/17 22:06:58;;;;;;;42.60;27.53;;;1.50;31.90;;;;;;5100301;28;20576;-83
2022/12/17 22:09:24;;;;;;;42.50;27.67;;;1.50;31.80;;;;;;5116908;28;20167;-80
2022/12/17 22:14:01;;;;;;;40.00;27.33;;;1.40;29.00;;;;;;5116529;28;20209;-81
2022/12/17 22:14:35;;;;;;;39.43;27.63;;;1.60;28.20;;;;;;5117935;28;20250;-81
2022/12/17 22:17:00;;;;;;;44.97;27.60;;;1.50;25.80;;;;;;5117467;28;20183;-81
2022/12/17 22:19:26;;;;;;;40.50;27.37;;;1.40;23.10;;;;;;5115958;28;20510;-81
2022/12/17 22:21:52;;;;;;;38.87;26.70;;;1.20;23.20;;;;;;5116928;28;20211;-82
2022/12/17 22:24:23;;;;;;;41.43;28.27;;;1.00;24.70;;;;;;5116270;28;20669;-82
2022/12/17 22:26:49;;;;;;;38.20;25.93;;;1.00;28.10;;;;;;5097526;28;20178;-82
2022/12/17 22:32:58;;;;;;;42.57;29.00;;;0.90;30.00;;;;;;5116197;28;20542;-80
2022/12/17 22:34:46;;;;;;;46.33;28.37;;;0.90;32.70;;;;;;5116535;28;20255;-81
2022/12/17 22:37:11;;;;;;;40.03;26.37;;;0.80;29.90;;;;;;5115425;28;20276;-81
2022/12/17 22:39:37;;;;;;;42.80;26.97;;;0.70;31.20;;;;;;5117578;28;20630;-80
2022/12/17 22:44:47;;;;;;;39.20;27.53;;;1.00;33.90;;;;;;5116268;28;20182;-80
2022/12/17 22:47:13;;;;;;;50.10;32.40;;;1.00;32.00;;;;;;5116780;28;20167;-82
2022/12/17 22:49:38;;;;;;;35.03;24.03;;;1.10;29.30;;;;;;5116357;28;20167;-82
2022/12/17 22:52:04;;;;;;;34.17;22.60;;;1.10;27.80;;;;;;5111991;28;20181;-80
2022/12/17 22:54:30;;;;;;;31.50;22.00;;;1.00;25.00;;;;;;5109922;28;20615;-81
2022/12/17 22:56:55;;;;;;;27.03;19.23;;;0.90;23.10;;;;;;5116585;28;20631;-81
2022/12/17 22:59:21;;;;;;;28.60;18.77;;;1.10;23.70;;;;;;5116852;28;20177;-80
2022/12/17 23:01:47;;;;;;;24.47;17.13;;;1.20;21.60;;;;;;5096425;28;20206;-81
2022/12/17 23:04:14;;;;;;;25.30;17.53;;;1.20;17.90;;;;;;5117247;28;20213;-81
2022/12/17 23:06:43;;;;;;;24.23;16.70;;;1.40;15.60;;;;;;5102671;28;20210;-81
2022/12/17 23:09:09;;;;;;;25.57;17.17;;;1.40;12.60;;;;;;5119183;28;20171;-80
2022/12/17 23:11:35;;;;;;;25.57;17.53;;;1.30;9.30;;;;;;5114542;28;20541;-80
2022/12/17 23:14:00;;;;;;;33.47;20.93;;;1.40;9.90;;;;;;5119155;28;20166;-82
2022/12/17 23:16:26;;;;;;;39.70;27.33;;;1.20;7.00;;;;;;5118052;28;20167;-81
2022/12/17 23:18:52;;;;;;;40.37;27.83;;;1.10;9.80;;;;;;5115727;28;20167;-80
2022/12/17 23:21:23;;;;;;;41.70;27.53;;;0.90;15.10;;;;;;5096967;28;20246;-80
2022/12/17 23:23:53;;;;;;;38.30;26.00;;;0.80;18.40;;;;;;5115984;28;20163;-81
2022/12/17 23:26:25;;;;;;;41.27;27.17;;;0.90;21.00;;;;;;5096882;28;20665;-81
2022/12/17 23:28:58;;;;;;;41.33;28.03;;;0.80;21.60;;;;;;5115244;28;20163;-80
2022/12/17 23:31:26;;;;;;;40.53;28.00;;;0.80;24.30;;;;;;5114967;28;20167;-78
2022/12/17 23:33:52;;;;;;;39.93;26.73;;;0.90;24.30;;;;;;5115345;28;20232;-79
2022/12/17 23:36:20;;;;;;;32.37;22.40;;;0.70;23.30;;;;;;5115398;28;20623;-81
2022/12/17 23:38:46;;;;;;;31.00;21.83;;;0.60;25.00;;;;;;5123377;28;20261;-78
2022/12/17 23:41:21;;;;;;;34.43;23.67;;;0.60;25.40;;;;;;5132355;28;20183;-79
2022/12/17 23:43:48;;;;;;;31.37;22.10;;;0.70;25.30;;;;;;5135206;28;20169;-76
2022/12/17 23:46:15;;;;;;;33.37;22.07;;;0.80;23.70;;;;;;5129583;28;20167;-80
2022/12/17 23:48:43;;;;;;;30.20;21.37;;;0.60;24.70;;;;;;5124585;28;20159;-78
2022/12/17 23:51:26;;;;;;;36.00;22.23;;;0.60;24.90;;;;;;5119278;28;20190;-79
2022/12/17 23:53:52;;;;;;;30.00;20.63;;;0.50;24.80;;;;;;5118260;28;20155;-80
2022/12/17 23:56:19;;;;;;;45.53;29.37;;;0.40;25.80;;;;;;5123901;28;20167;-79
2022/12/17 23:58:46;;;;;;;26.63;18.10;;;0.40;25.70;;;;;;5121456;28;20167;-79
